createdAt,value
2019-05-03T00:02:22.721Z,98268.83
2019-05-03T00:04:51.826Z,98273.81
2019-05-03T00:07:18.539Z,98272.91
2019-05-03T00:09:45.396Z,98269.76
2019-05-03T00:12:12.756Z,98265.61
2019-05-03T00:14:41.723Z,98266.59
2019-05-03T00:17:08.584Z,98258.27
2019-05-03T00:19:35.315Z,98260.69
2019-05-03T00:22:02.301Z,98264.09
2019-05-03T00:24:29.096Z,98261.55
2019-05-03T00:26:55.852Z,98263.66
2019-05-03T00:29:25.446Z,98263.17
2019-05-03T00:31:52.172Z,98266.77
2019-05-03T00:34:23.138Z,98261.99
2019-05-03T00:36:53.713Z,98263.63
2019-05-03T00:39:28.321Z,98265.56
2019-05-03T00:41:55.191Z,98271.16
2019-05-03T00:44:22.260Z,98277.71
2019-05-03T00:46:49.067Z,98267.45
2019-05-03T00:49:15.929Z,98265.11
2019-05-03T00:51:42.608Z,98258.27
2019-05-03T00:54:09.362Z,98256.80
2019-05-03T00:56:36.072Z,98260.90
2019-05-03T00:59:02.842Z,98258.45
2019-05-03T01:01:29.587Z,98264.54
2019-05-03T01:03:56.634Z,98260.53
2019-05-03T01:06:23.362Z,98260.08
2019-05-03T01:08:52.398Z,98263.91
2019-05-03T01:11:19.400Z,98265.42
2019-05-03T01:13:46.105Z,98264.06
2019-05-03T01:16:15.776Z,98264.59
2019-05-03T01:18:42.810Z,98270.83
2019-05-03T01:21:11.587Z,98277.95
2019-05-03T01:23:42.052Z,98276.13
2019-05-03T01:26:08.999Z,98270.48
2019-05-03T01:28:36.220Z,98281.84
2019-05-03T01:31:02.976Z,98278.27
2019-05-03T01:33:29.712Z,98280.22
2019-05-03T01:35:58.834Z,98283.62
2019-05-03T01:38:25.680Z,98281.05
2019-05-03T01:40:52.396Z,98276.16
2019-05-03T01:43:19.165Z,98281.47
2019-05-03T01:45:45.916Z,98283.85
2019-05-03T01:48:29.192Z,98282.83
2019-05-03T01:51:04.897Z,98284.52
2019-05-03T01:53:32.776Z,98285.80
2019-05-03T01:55:59.840Z,98280.05
2019-05-03T01:58:26.685Z,98286.61
2019-05-03T02:01:03.590Z,98297.23
2019-05-03T02:03:37.360Z,98292.44
2019-05-03T02:06:04.126Z,98291.78
2019-05-03T02:08:32.629Z,98291.18
2019-05-03T02:10:59.648Z,98291.11
2019-05-03T02:13:26.376Z,98293.80
2019-05-03T02:15:53.116Z,98293.97
2019-05-03T02:18:19.895Z,98293.25
2019-05-03T02:20:46.610Z,98296.28
2019-05-03T02:23:13.336Z,98298.97
2019-05-03T02:25:41.881Z,98301.28
2019-05-03T02:28:08.896Z,98299.23
2019-05-03T02:30:35.621Z,98296.69
2019-05-03T02:33:04.373Z,98298.05
2019-05-03T02:35:33.287Z,98303.77
2019-05-03T02:37:59.802Z,98308.61
2019-05-03T02:40:35.577Z,98300.20
2019-05-03T02:43:20.155Z,98302.02
2019-05-03T02:46:00.507Z,98295.73
2019-05-03T02:48:45.555Z,98294.37
2019-05-03T02:51:11.529Z,98291.92
2019-05-03T02:53:38.241Z,98294.73
2019-05-03T02:56:15.272Z,98296.13
2019-05-03T02:58:35.829Z,98305.19
2019-05-03T03:01:02.864Z,98309.06
2019-05-03T03:03:31.158Z,98308.70
2019-05-03T03:05:59.817Z,98307.91
2019-05-03T03:08:27.725Z,98310.30
2019-05-03T03:11:00.589Z,98302.91
2019-05-03T03:13:28.891Z,98301.47
2019-05-03T03:15:55.997Z,98313.85
2019-05-03T03:18:25.438Z,98308.70
2019-05-03T03:20:52.143Z,98327.29
2019-05-03T03:23:20.670Z,98308.00
2019-05-03T03:25:47.524Z,98310.14
2019-05-03T03:28:15.882Z,98315.26
2019-05-03T03:31:02.667Z,98322.16
2019-05-03T03:33:30.227Z,98319.36
2019-05-03T03:36:01.072Z,98325.80
2019-05-03T03:38:26.230Z,98325.02
2019-05-03T03:40:56.467Z,98327.63
2019-05-03T03:43:22.144Z,98329.81
2019-05-03T03:45:49.587Z,98332.17
2019-05-03T03:48:18.154Z,98338.78
2019-05-03T03:50:47.963Z,98336.98
2019-05-03T03:53:15.417Z,98337.07
2019-05-03T03:55:45.818Z,98341.63
2019-05-03T03:58:21.748Z,98345.38
2019-05-03T04:00:42.804Z,98349.80
2019-05-03T04:03:09.534Z,98350.11
2019-05-03T04:05:36.286Z,98353.34
2019-05-03T04:08:05.698Z,98358.20
2019-05-03T04:10:32.347Z,98363.31
2019-05-03T04:12:59.153Z,98370.94
2019-05-03T04:15:45.869Z,98369.91
2019-05-03T04:18:25.440Z,98379.15
2019-05-03T04:20:55.974Z,98388.11
2019-05-03T04:23:22.989Z,98383.66
2019-05-03T04:25:49.698Z,98384.44
2019-05-03T04:28:16.508Z,98384.35
2019-05-03T04:30:45.782Z,98385.05
2019-05-03T04:33:15.845Z,98388.52
2019-05-03T04:35:41.835Z,98386.47
2019-05-03T04:38:08.964Z,98389.81
2019-05-03T04:40:36.123Z,98385.80
2019-05-03T04:43:06.752Z,98386.66
2019-05-03T04:45:36.641Z,98384.68
2019-05-03T04:48:05.746Z,98391.99
2019-05-03T04:50:32.213Z,98398.42
2019-05-03T04:52:59.047Z,98400.38
2019-05-03T04:55:26.648Z,98397.27
2019-05-03T04:57:56.065Z,98403.79
2019-05-03T05:00:25.360Z,98407.36
2019-05-03T05:02:51.317Z,98403.56
2019-05-03T05:05:18.081Z,98403.02
2019-05-03T05:07:45.844Z,98407.70
2019-05-03T05:10:15.356Z,98409.28
2019-05-03T05:12:41.852Z,98409.78
2019-05-03T05:15:08.768Z,98410.42
2019-05-03T05:18:05.735Z,98425.49
2019-05-03T05:20:39.357Z,98422.50
2019-05-03T05:23:06.435Z,98428.46
2019-05-03T05:25:41.225Z,98429.95
2019-05-03T05:28:35.357Z,98426.42
2019-05-03T05:31:02.009Z,98429.72
2019-05-03T05:33:29.147Z,98430.47
2019-05-03T05:35:56.231Z,98456.21
2019-05-03T05:38:22.958Z,98436.15
2019-05-03T05:40:49.719Z,98442.53
2019-05-03T05:43:16.459Z,98442.17
2019-05-03T05:45:44.921Z,98440.23
2019-05-03T05:48:15.357Z,98436.72
2019-05-03T05:50:44.902Z,98444.05
2019-05-03T05:53:12.203Z,98447.96
2019-05-03T05:56:07.970Z,98454.98
2019-05-03T05:58:48.449Z,98457.61
2019-05-03T06:01:27.736Z,98474.27
2019-05-03T06:03:55.070Z,98460.96
2019-05-03T06:06:32.385Z,98467.34
2019-05-03T06:09:08.763Z,98479.28
2019-05-03T06:11:45.114Z,98473.84
2019-05-03T06:14:24.989Z,98466.74
2019-05-03T06:17:07.085Z,98464.55
2019-05-03T06:19:55.017Z,98478.22
2019-05-03T06:22:29.460Z,98471.23
2019-05-03T06:25:06.512Z,98475.88
2019-05-03T06:27:37.525Z,98463.53
2019-05-03T06:30:29.481Z,98474.27
2019-05-03T06:32:56.205Z,98472.96
2019-05-03T06:35:24.377Z,98476.64
2019-05-03T06:37:51.211Z,98480.33
2019-05-03T06:40:17.952Z,98479.61
2019-05-03T06:42:52.348Z,98480.14
2019-05-03T06:45:15.075Z,98483.82
2019-05-03T06:47:46.076Z,98484.44
2019-05-03T06:50:11.982Z,98482.22
2019-05-03T06:52:38.717Z,98487.75
2019-05-03T06:55:09.177Z,98488.52
2019-05-03T06:57:40.140Z,98486.44
2019-05-03T07:00:24.815Z,98483.82
2019-05-03T07:03:11.362Z,98496.29
2019-05-03T07:05:56.443Z,98496.27
2019-05-03T07:08:44.824Z,98497.61
2019-05-03T07:11:10.459Z,98499.78
2019-05-03T07:13:39.025Z,98505.38
2019-05-03T07:16:06.066Z,98495.47
2019-05-03T07:18:35.006Z,98495.67
2019-05-03T07:21:01.515Z,98498.52
2019-05-03T07:23:28.521Z,98504.64
2019-05-03T07:25:55.353Z,98506.56
2019-05-03T07:28:22.065Z,98502.17
2019-05-03T07:30:48.805Z,98504.38
2019-05-03T07:33:21.929Z,98506.22
2019-05-03T07:35:48.893Z,98505.27
2019-05-03T07:38:15.925Z,98502.64
2019-05-03T07:40:44.509Z,98503.62
2019-05-03T07:43:11.657Z,98503.07
2019-05-03T07:45:38.373Z,98497.95
2019-05-03T07:48:05.101Z,98496.53
2019-05-03T07:50:33.307Z,98498.72
2019-05-03T07:53:04.650Z,98498.92
2019-05-03T07:55:55.276Z,98499.72
2019-05-03T07:58:22.680Z,98500.67
2019-05-03T08:01:05.082Z,98502.33
2019-05-03T08:03:21.820Z,98500.80
2019-05-03T08:05:48.533Z,98507.78
2019-05-03T08:08:15.263Z,98504.69
2019-05-03T08:10:42.245Z,98508.59
2019-05-03T08:13:09.073Z,98524.36
2019-05-03T08:15:45.314Z,98509.08
2019-05-03T08:18:15.320Z,98510.84
2019-05-03T08:20:42.349Z,98509.30
2019-05-03T08:23:09.079Z,98515.77
2019-05-03T08:25:35.828Z,98510.02
2019-05-03T08:28:02.831Z,98507.19
2019-05-03T08:30:38.740Z,98515.98
2019-05-03T08:33:24.992Z,98512.41
2019-05-03T08:35:52.155Z,98516.31
2019-05-03T08:38:18.893Z,98504.48
2019-05-03T08:40:47.180Z,98512.67
2019-05-03T08:43:15.562Z,98499.84
2019-05-03T08:45:44.712Z,98499.27
2019-05-03T08:48:11.703Z,98508.88
2019-05-03T08:50:39.654Z,98499.05
2019-05-03T08:53:06.395Z,98496.78
2019-05-03T08:55:35.051Z,98503.19
2019-05-03T08:58:01.803Z,98500.80
2019-05-03T09:00:30.440Z,98495.72
2019-05-03T09:02:57.568Z,98484.09
2019-05-03T09:05:25.036Z,98491.39
2019-05-03T09:07:54.903Z,98500.59
2019-05-03T09:10:27.318Z,98493.64
2019-05-03T09:13:06.219Z,98494.58
2019-05-03T09:15:32.691Z,98491.34
2019-05-03T09:17:59.510Z,98485.53
2019-05-03T09:20:26.507Z,98481.78
2019-05-03T09:22:55.070Z,98480.96
2019-05-03T09:25:21.809Z,98479.91
2019-05-03T09:27:48.887Z,98475.70
2019-05-03T09:30:15.780Z,98477.47
2019-05-03T09:32:44.820Z,98470.94
2019-05-03T09:35:11.931Z,98482.66
2019-05-03T09:37:38.958Z,98477.81
2019-05-03T09:40:05.711Z,98476.28
2019-05-03T09:42:35.283Z,98482.70
2019-05-03T09:45:07.151Z,98482.08
2019-05-03T09:47:35.409Z,98483.06
2019-05-03T09:50:04.689Z,98485.66
2019-05-03T09:52:31.185Z,98478.41
2019-05-03T09:54:59.854Z,98475.90
2019-05-03T09:57:26.887Z,98475.25
2019-05-03T09:59:59.136Z,98474.72
2019-05-03T10:02:24.660Z,98466.83
2019-05-03T10:04:58.333Z,98467.11
2019-05-03T10:07:25.910Z,98469.60
2019-05-03T10:09:55.051Z,98468.77
2019-05-03T10:12:22.835Z,98467.79
2019-05-03T10:14:49.799Z,98465.98
2019-05-03T10:17:51.431Z,98463.02
2019-05-03T10:20:19.555Z,98454.33
2019-05-03T10:22:46.367Z,98450.16
2019-05-03T10:25:13.137Z,98452.26
2019-05-03T10:27:46.156Z,98448.70
2019-05-03T10:30:17.127Z,98448.42
2019-05-03T10:32:46.882Z,98448.33
2019-05-03T10:35:15.142Z,98444.83
2019-05-03T10:37:42.203Z,98447.09
2019-05-03T10:40:09.047Z,98435.90
2019-05-03T10:42:35.891Z,98439.99
2019-05-03T10:45:04.610Z,98444.55
2019-05-03T10:47:31.445Z,98446.84
2019-05-03T10:49:58.149Z,98443.69
2019-05-03T10:52:34.884Z,98437.91
2019-05-03T10:55:05.263Z,98441.38
2019-05-03T10:57:35.512Z,98441.91
2019-05-03T11:00:05.078Z,98432.41
2019-05-03T11:02:45.336Z,98428.29
2019-05-03T11:05:17.030Z,98430.41
2019-05-03T11:07:45.800Z,98433.73
2019-05-03T11:10:14.575Z,98431.50
2019-05-03T11:12:42.984Z,98426.50
2019-05-03T11:15:11.616Z,98422.83
2019-05-03T11:17:38.370Z,98424.64
2019-05-03T11:20:05.347Z,98428.03
2019-05-03T11:22:32.058Z,98424.88
2019-05-03T11:24:58.777Z,98419.78
2019-05-03T11:27:38.387Z,98421.83
2019-05-03T11:30:05.275Z,98419.52
2019-05-03T11:32:50.091Z,98417.02
2019-05-03T11:35:31.517Z,98420.29
2019-05-03T11:38:17.104Z,98420.98
2019-05-03T11:40:45.493Z,98419.08
2019-05-03T11:43:12.577Z,98428.23
2019-05-03T11:45:39.332Z,98421.66
2019-05-03T11:48:06.186Z,98423.30
2019-05-03T11:50:34.778Z,98423.11
2019-05-03T11:53:01.710Z,98434.48
2019-05-03T11:55:28.599Z,98424.69
2019-05-03T11:58:00.368Z,98424.52
2019-05-03T12:00:33.990Z,98426.08
2019-05-03T12:03:08.070Z,98431.59
2019-05-03T12:05:34.894Z,98430.49
2019-05-03T12:08:01.642Z,98427.95
2019-05-03T12:10:46.729Z,98424.52
2019-05-03T12:13:04.904Z,98426.16
2019-05-03T12:15:32.538Z,98426.98
2019-05-03T12:18:03.278Z,98422.20
2019-05-03T12:20:36.488Z,98418.28
2019-05-03T12:23:07.945Z,98428.98
2019-05-03T12:25:36.343Z,98419.58
2019-05-03T12:28:11.998Z,98419.45
2019-05-03T12:30:38.927Z,98413.28
2019-05-03T12:33:06.133Z,98406.42
2019-05-03T12:35:35.546Z,98411.61
2019-05-03T12:38:01.840Z,98406.34
2019-05-03T12:40:28.595Z,98405.30
2019-05-03T12:42:55.534Z,98399.66
2019-05-03T12:45:24.789Z,98404.26
2019-05-03T12:47:52.110Z,98404.32
2019-05-03T12:50:18.861Z,97825.03
2019-05-03T12:52:50.428Z,98408.16
2019-05-03T12:55:15.373Z,98414.34
2019-05-03T12:57:42.638Z,98433.41
2019-05-03T13:00:38.420Z,98450.83
2019-05-03T13:03:08.561Z,98438.06
2019-05-03T13:05:35.693Z,98460.05
2019-05-03T13:08:32.420Z,98424.11
2019-05-03T13:10:59.209Z,98420.15
2019-05-03T13:13:28.401Z,98417.81
2019-05-03T13:15:55.838Z,98412.00
2019-05-03T13:18:22.607Z,98410.02
2019-05-03T13:20:49.350Z,98401.72
2019-05-03T13:23:16.092Z,98402.38
2019-05-03T13:25:44.791Z,98400.96
2019-05-03T13:28:11.804Z,98394.68
2019-05-03T13:30:38.511Z,98390.59
2019-05-03T13:33:05.913Z,98396.34
2019-05-03T13:35:35.011Z,98391.81
2019-05-03T13:38:01.527Z,98385.47
2019-05-03T13:40:28.282Z,98386.13
2019-05-03T13:43:01.731Z,98379.47
2019-05-03T13:45:24.727Z,98385.52
2019-05-03T13:47:51.704Z,98374.26
2019-05-03T13:50:18.437Z,98371.53
2019-05-03T13:52:45.555Z,98377.53
2019-05-03T13:55:14.483Z,98366.80
2019-05-03T13:57:40.985Z,98366.14
2019-05-03T14:00:07.723Z,98383.36
2019-05-03T14:02:35.992Z,98358.17
2019-05-03T14:05:04.943Z,98352.84
2019-05-03T14:07:31.788Z,98346.32
2019-05-03T14:09:58.506Z,98336.58
2019-05-03T14:12:25.250Z,98336.97
2019-05-03T14:14:52.335Z,98341.77
2019-05-03T14:17:22.264Z,98337.38
2019-05-03T14:19:55.098Z,98342.72
2019-05-03T14:22:25.676Z,98336.91
2019-05-03T14:24:52.413Z,98336.05
2019-05-03T14:27:19.162Z,98329.06
2019-05-03T14:29:45.904Z,98326.31
2019-05-03T14:32:25.937Z,98325.64
2019-05-03T14:34:49.156Z,98326.32
2019-05-03T14:37:15.877Z,98322.53
2019-05-03T14:39:46.766Z,98323.10
2019-05-03T14:42:12.661Z,98316.84
2019-05-03T14:44:39.790Z,98321.38
2019-05-03T14:47:06.492Z,98314.00
2019-05-03T14:49:34.600Z,98320.30
2019-05-03T14:52:05.544Z,98318.65
2019-05-03T14:54:34.565Z,98325.92
2019-05-03T14:57:30.143Z,98325.36
2019-05-03T15:00:25.163Z,98331.28
2019-05-03T15:03:06.195Z,98341.53
2019-05-03T15:05:34.806Z,98344.55
2019-05-03T15:08:02.194Z,98344.77
2019-05-03T15:10:29.035Z,98342.78
2019-05-03T15:12:55.758Z,98341.52
2019-05-03T15:15:22.474Z,98340.02
2019-05-03T15:17:49.600Z,98338.52
2019-05-03T15:20:16.695Z,98335.12
2019-05-03T15:22:45.279Z,98337.61
2019-05-03T15:25:12.025Z,98334.33
2019-05-03T15:27:38.976Z,98340.16
2019-05-03T15:30:06.237Z,98342.13
2019-05-03T15:32:35.219Z,98341.16
2019-05-03T15:35:01.739Z,98338.52
2019-05-03T15:37:29.980Z,98340.11
2019-05-03T15:39:56.708Z,98333.64
2019-05-03T15:42:24.752Z,98329.91
2019-05-03T15:45:07.778Z,98337.94
2019-05-03T15:47:42.986Z,98322.95
2019-05-03T15:50:09.693Z,98326.41
2019-05-03T15:52:36.590Z,98320.61
2019-05-03T15:55:04.731Z,98319.56
2019-05-03T15:57:31.673Z,98320.12
2019-05-03T15:59:58.414Z,98316.67
2019-05-03T16:02:25.182Z,98317.64
2019-05-03T16:04:51.909Z,98312.62
2019-05-03T16:07:18.736Z,98317.89
2019-05-03T16:09:45.467Z,98319.02
2019-05-03T16:12:14.800Z,98324.31
2019-05-03T16:14:41.631Z,98325.32
2019-05-03T16:17:08.485Z,98322.61
2019-05-03T16:19:35.727Z,98321.93
2019-05-03T16:22:02.480Z,98316.08
2019-05-03T16:24:29.197Z,98321.86
2019-05-03T16:27:24.853Z,98312.43
2019-05-03T16:29:51.581Z,98315.75
2019-05-03T16:32:18.291Z,98323.50
2019-05-03T16:34:45.012Z,98316.89
2019-05-03T16:37:11.708Z,98321.85
2019-05-03T16:39:38.419Z,98307.90
2019-05-03T16:42:06.921Z,98310.36
2019-05-03T16:44:35.062Z,98310.25
2019-05-03T16:47:02.080Z,98317.45
2019-05-03T16:49:28.876Z,98310.80
2019-05-03T16:51:55.719Z,98304.11
2019-05-03T16:54:25.495Z,98306.04
2019-05-03T16:56:52.441Z,98308.06
2019-05-03T16:59:19.164Z,98308.83
2019-05-03T17:01:45.889Z,98305.81
2019-05-03T17:04:37.289Z,98309.70
2019-05-03T17:07:30.061Z,98311.75
2019-05-03T17:10:04.895Z,98305.86
2019-05-03T17:12:34.794Z,98306.81
2019-05-03T17:15:01.869Z,98303.02
2019-05-03T17:17:28.600Z,98305.81
2019-05-03T17:19:55.424Z,98313.14
2019-05-03T17:22:22.152Z,98307.24
2019-05-03T17:24:51.530Z,98311.11
2019-05-03T17:27:17.832Z,98310.66
2019-05-03T17:29:46.088Z,98326.03
2019-05-03T17:32:12.909Z,98305.56
2019-05-03T17:34:39.655Z,98303.30
2019-05-03T17:37:06.557Z,98309.03
2019-05-03T17:40:11.382Z,98301.69
2019-05-03T17:43:14.648Z,98305.44
2019-05-03T17:45:49.605Z,98299.42
2019-05-03T17:48:16.343Z,98304.80
2019-05-03T17:50:43.056Z,98300.07
2019-05-03T17:53:26.536Z,98305.98
2019-05-03T17:56:04.650Z,98305.98
2019-05-03T17:58:44.427Z,98306.41
2019-05-03T18:01:20.475Z,98309.92
2019-05-03T18:03:49.272Z,98310.34
2019-05-03T18:06:38.663Z,98311.73
2019-05-03T18:09:15.617Z,98308.76
2019-05-03T18:11:45.088Z,98311.41
2019-05-03T18:14:12.083Z,98308.73
2019-05-03T18:16:38.795Z,98312.60
2019-05-03T18:19:05.847Z,98322.16
2019-05-03T18:21:32.552Z,98314.05
2019-05-03T18:23:59.715Z,98313.88
2019-05-03T18:26:26.452Z,98312.98
2019-05-03T18:28:54.968Z,98320.11
2019-05-03T18:31:22.229Z,98318.84
2019-05-03T18:33:48.957Z,98313.42
2019-05-03T18:36:15.658Z,98319.84
2019-05-03T18:38:44.459Z,98324.37
2019-05-03T18:41:11.710Z,98330.05
2019-05-03T18:44:01.209Z,98326.50
2019-05-03T18:46:34.307Z,98326.60
2019-05-03T18:49:01.033Z,98338.56
2019-05-03T18:51:31.230Z,98342.72
2019-05-03T18:53:58.051Z,98332.78
2019-05-03T18:56:26.929Z,98346.09
2019-05-03T18:58:55.037Z,98351.62
2019-05-03T19:01:21.773Z,98342.11
2019-05-03T19:03:51.433Z,98340.26
2019-05-03T19:06:18.939Z,98339.03
2019-05-03T19:09:05.271Z,98337.56
2019-05-03T19:12:00.195Z,98340.66
2019-05-03T19:14:27.603Z,98339.06
2019-05-03T19:17:15.298Z,98336.69
2019-05-03T19:19:44.538Z,98335.20
2019-05-03T19:22:11.067Z,98334.36
2019-05-03T19:24:37.793Z,98346.63
2019-05-03T19:27:06.257Z,98338.78
2019-05-03T19:29:34.372Z,98335.77
2019-05-03T19:32:01.324Z,98333.30
2019-05-03T19:34:28.026Z,98327.93
2019-05-03T19:36:54.818Z,98327.67
2019-05-03T19:39:21.854Z,98332.63
2019-05-03T19:41:49.709Z,98328.75
2019-05-03T19:44:16.707Z,98341.52
2019-05-03T19:46:44.823Z,98331.37
2019-05-03T19:49:11.529Z,98335.06
2019-05-03T19:51:38.698Z,98328.80
2019-05-03T19:54:08.537Z,98335.49
2019-05-03T19:56:35.272Z,98370.17
2019-05-03T19:59:06.787Z,98337.30
2019-05-03T20:01:55.582Z,98335.92
2019-05-03T20:04:42.222Z,98333.38
2019-05-03T20:07:42.424Z,98337.07
2019-05-03T20:10:09.214Z,98343.83
2019-05-03T20:12:36.035Z,98338.13
2019-05-03T20:15:05.176Z,98331.66
2019-05-03T20:17:34.572Z,98331.80
2019-05-03T20:20:01.675Z,98330.64
2019-05-03T20:22:32.396Z,98328.22
2019-05-03T20:25:00.505Z,98329.93
2019-05-03T20:27:27.925Z,98336.72
2019-05-03T20:29:55.449Z,98336.15
2019-05-03T20:32:22.413Z,98349.30
2019-05-03T20:34:49.132Z,98334.07
2019-05-03T20:37:19.468Z,98332.39
2019-05-03T20:39:47.354Z,98336.37
2019-05-03T20:42:35.630Z,98331.72
2019-05-03T20:45:05.216Z,98339.84
2019-05-03T20:47:55.080Z,98337.97
2019-05-03T20:50:21.970Z,98342.44
2019-05-03T20:52:48.727Z,98337.21
2019-05-03T20:55:15.727Z,98343.64
2019-05-03T20:57:44.426Z,98359.33
2019-05-03T21:00:14.844Z,98346.55
2019-05-03T21:02:51.676Z,98330.59
2019-05-03T21:05:34.477Z,98331.65
2019-05-03T21:08:00.464Z,98377.00
2019-05-03T21:10:27.313Z,98371.97
2019-05-03T21:12:54.499Z,98332.97
2019-05-03T21:15:38.602Z,98337.41
2019-05-03T21:18:19.546Z,98329.91
2019-05-03T21:20:58.793Z,98332.44
2019-05-03T21:23:27.794Z,98337.73
2019-05-03T21:26:21.796Z,98328.93
2019-05-03T21:28:50.140Z,98352.09
2019-05-03T21:31:20.662Z,98333.47
2019-05-03T21:33:48.022Z,98353.44
2019-05-03T21:36:15.266Z,98361.11
2019-05-03T21:38:44.304Z,98325.49
2019-05-03T21:41:11.246Z,98329.73
2019-05-03T21:43:38.274Z,98316.20
2019-05-03T21:46:10.443Z,98323.20
2019-05-03T21:48:55.716Z,98323.63
2019-05-03T21:51:24.381Z,98324.57
2019-05-03T21:53:54.187Z,98329.07
2019-05-03T21:56:22.153Z,98320.10
2019-05-03T21:58:48.885Z,98324.34
2019-05-03T22:01:15.842Z,98324.34
2019-05-03T22:03:44.620Z,98319.66
2019-05-03T22:06:11.260Z,98317.03
2019-05-03T22:08:37.985Z,98306.64
2019-05-03T22:11:05.424Z,98310.90
2019-05-03T22:13:34.815Z,98306.88
2019-05-03T22:16:19.977Z,98303.59
2019-05-03T22:18:46.828Z,98301.40
2019-05-03T22:21:31.247Z,98299.20
2019-05-03T22:24:17.565Z,98289.84
2019-05-03T22:26:53.131Z,98285.95
2019-05-03T22:29:20.735Z,98276.70
2019-05-03T22:31:47.474Z,98279.29
2019-05-03T22:34:15.080Z,98276.91
2019-05-03T22:36:44.894Z,98269.42
2019-05-03T22:39:11.646Z,98274.95
2019-05-03T22:41:38.385Z,98270.27
2019-05-03T22:44:05.114Z,98271.67
2019-05-03T22:46:31.856Z,98293.41
2019-05-03T22:48:58.580Z,98269.03
2019-05-03T22:51:25.286Z,98257.36
2019-05-03T22:53:52.022Z,98262.69
2019-05-03T22:56:19.103Z,98267.15
2019-05-03T22:58:46.254Z,98263.04
2019-05-03T23:01:16.474Z,98257.28
2019-05-03T23:03:41.912Z,98260.51
2019-05-03T23:06:19.498Z,98261.63
2019-05-03T23:08:39.916Z,98257.16
2019-05-03T23:11:09.330Z,98250.09
2019-05-03T23:13:36.036Z,98239.52
2019-05-03T23:16:02.797Z,98246.08
2019-05-03T23:18:35.078Z,98237.45
2019-05-03T23:21:08.389Z,98241.77
2019-05-03T23:23:47.791Z,98228.00
2019-05-03T23:26:14.865Z,98232.44
2019-05-03T23:28:41.803Z,98225.33
2019-05-03T23:31:08.598Z,98221.77
2019-05-03T23:33:35.318Z,98222.33
2019-05-03T23:36:04.411Z,98215.77
2019-05-03T23:38:34.828Z,98219.30
2019-05-03T23:41:04.681Z,98221.25
2019-05-03T23:43:31.564Z,98217.34
2019-05-03T23:45:58.322Z,98208.22
2019-05-03T23:48:28.148Z,98206.23
2019-05-03T23:50:55.229Z,98200.34
2019-05-03T23:53:22.457Z,98187.84
2019-05-03T23:55:53.982Z,98194.68
2019-05-03T23:58:20.799Z,98199.73
